createdAt,value
2018-01-23T00:00:58.075Z,43.55
2018-01-23T00:03:25.559Z,27.80
2018-01-23T00:05:53.068Z,36.40
2018-01-23T00:08:20.552Z,30.98
2018-01-23T00:10:48.056Z,32.15
2018-01-23T00:13:15.597Z,29.75
2018-01-23T00:15:43.082Z,43.38
2018-01-23T00:18:10.950Z,36.83
2018-01-23T00:20:38.518Z,36.22
2018-01-23T00:23:05.994Z,33.28
2018-01-23T00:25:33.491Z,32.08
2018-01-23T00:28:01.446Z,39.28
2018-01-23T00:30:28.934Z,33.25
2018-01-23T00:32:56.803Z,32.97
2018-01-23T00:35:24.774Z,35.25
2018-01-23T00:37:52.247Z,39.30
2018-01-23T00:40:19.809Z,34.42
2018-01-23T00:42:47.388Z,47.30
2018-01-23T00:45:14.858Z,46.10
2018-01-23T00:47:42.350Z,37.63
2018-01-23T00:50:10.222Z,45.72
2018-01-23T00:52:38.114Z,40.50
2018-01-23T00:55:05.590Z,37.38
2018-01-23T00:57:33.086Z,42.72
2018-01-23T01:00:00.572Z,42.15
2018-01-23T01:02:28.166Z,44.97
2018-01-23T01:04:55.746Z,36.78
2018-01-23T01:07:23.313Z,44.47
2018-01-23T01:09:50.786Z,34.75
2018-01-23T01:12:18.282Z,48.33
2018-01-23T01:14:46.150Z,40.47
2018-01-23T01:17:14.047Z,46.30
2018-01-23T01:19:41.582Z,45.85
2018-01-23T01:22:09.074Z,45.88
2018-01-23T01:24:36.945Z,41.22
2018-01-23T01:27:04.838Z,36.10
2018-01-23T01:29:32.706Z,46.08
2018-01-23T01:32:00.673Z,39.15
2018-01-23T01:34:28.142Z,45.95
2018-01-23T01:36:55.722Z,40.38
2018-01-23T01:39:23.190Z,43.53
2018-01-23T01:41:50.694Z,47.00
2018-01-23T01:44:18.170Z,41.55
2018-01-23T01:46:45.683Z,45.65
2018-01-23T01:49:13.159Z,43.85
2018-01-23T01:51:40.759Z,47.22
2018-01-23T01:54:08.636Z,39.72
2018-01-23T01:56:36.538Z,51.20
2018-01-23T01:59:04.019Z,51.53
2018-01-23T02:01:31.532Z,42.47
2018-01-23T02:03:59.016Z,37.83
2018-01-23T02:06:26.519Z,43.55
2018-01-23T02:08:54.024Z,50.12
2018-01-23T02:11:21.930Z,54.13
2018-01-23T02:13:49.431Z,47.15
2018-01-23T02:16:17.310Z,49.97
2018-01-23T02:18:45.215Z,44.72
2018-01-23T02:21:12.704Z,46.05
2018-01-23T02:23:40.215Z,49.65
2018-01-23T02:26:07.696Z,54.05
2018-01-23T02:28:35.599Z,55.72
2018-01-23T02:31:03.083Z,41.92
2018-01-23T02:33:30.610Z,53.90
2018-01-23T02:35:58.504Z,56.47
2018-01-23T02:38:26.470Z,64.85
2018-01-23T02:40:54.044Z,48.17
2018-01-23T02:43:21.547Z,49.70
2018-01-23T02:45:49.022Z,52.92
2018-01-23T02:48:16.556Z,54.65
2018-01-23T02:50:44.040Z,53.65
2018-01-23T02:53:11.544Z,56.30
2018-01-23T02:55:39.066Z,47.97
2018-01-23T02:58:06.575Z,45.28
2018-01-23T03:00:34.102Z,42.65
2018-01-23T03:03:01.619Z,51.58
2018-01-23T03:05:29.153Z,50.30
2018-01-23T03:07:56.660Z,53.10
2018-01-23T03:10:24.142Z,49.85
2018-01-23T03:12:51.650Z,53.30
2018-01-23T03:15:19.131Z,55.83
2018-01-23T03:17:46.640Z,53.13
2018-01-23T03:20:14.129Z,42.03
2018-01-23T03:22:41.630Z,49.08
2018-01-23T03:25:09.229Z,55.25
2018-01-23T03:27:37.140Z,47.20
2018-01-23T03:30:04.625Z,47.42
2018-01-23T03:32:32.144Z,53.42
2018-01-23T03:35:00.022Z,48.58
2018-01-23T03:37:27.592Z,46.53
2018-01-23T03:39:55.103Z,43.25
2018-01-23T03:42:22.588Z,51.80
2018-01-23T03:44:50.104Z,49.78
2018-01-23T03:47:17.676Z,51.95
2018-01-23T03:49:45.253Z,45.50
2018-01-23T03:52:13.144Z,53.17
2018-01-23T03:54:41.047Z,44.40
2018-01-23T03:57:08.522Z,51.15
2018-01-23T03:59:36.030Z,51.37
2018-01-23T04:02:03.521Z,38.38
2018-01-23T04:04:31.028Z,45.30
2018-01-23T04:06:58.511Z,38.55
2018-01-23T04:09:26.036Z,42.42
2018-01-23T04:11:53.916Z,42.10
2018-01-23T04:14:21.900Z,42.58
2018-01-23T04:16:49.775Z,43.17
2018-01-23T04:19:17.288Z,43.95
2018-01-23T04:21:44.772Z,37.50
2018-01-23T04:24:12.284Z,40.08
2018-01-23T04:26:39.758Z,43.17
2018-01-23T04:29:07.664Z,42.22
2018-01-23T04:31:35.208Z,40.33
2018-01-23T04:34:03.116Z,45.05
2018-01-23T04:36:30.604Z,36.95
2018-01-23T04:38:58.120Z,36.78
2018-01-23T04:41:25.608Z,35.58
2018-01-23T04:43:53.517Z,36.63
2018-01-23T04:46:21.010Z,29.15
2018-01-23T04:48:48.516Z,39.95
2018-01-23T04:51:15.991Z,35.85
2018-01-23T04:53:43.564Z,38.50
2018-01-23T04:56:11.043Z,31.50
2018-01-23T04:58:39.015Z,36.20
2018-01-23T05:01:06.495Z,42.45
2018-01-23T05:03:34.391Z,39.25
2018-01-23T05:06:01.872Z,31.35
2018-01-23T05:08:29.384Z,42.13
2018-01-23T05:10:56.886Z,35.83
2018-01-23T05:13:24.864Z,38.20
2018-01-23T05:15:52.769Z,35.20
2018-01-23T05:18:20.311Z,32.55
2018-01-23T05:20:47.819Z,33.15
2018-01-23T05:23:15.299Z,30.00
2018-01-23T05:25:42.815Z,39.95
2018-01-23T05:28:10.296Z,38.40
2018-01-23T05:30:38.199Z,33.88
2018-01-23T05:33:05.675Z,40.92
2018-01-23T05:35:33.220Z,45.40
2018-01-23T05:38:01.120Z,43.97
2018-01-23T05:40:28.633Z,40.83
2018-01-23T05:42:56.120Z,38.22
2018-01-23T05:45:23.632Z,48.13
2018-01-23T05:47:51.180Z,35.72
2018-01-23T05:50:18.692Z,48.95
2018-01-23T05:52:46.225Z,42.90
2018-01-23T05:55:14.128Z,38.15
2018-01-23T05:57:41.612Z,33.65
2018-01-23T06:00:09.124Z,35.97
2018-01-23T06:02:36.711Z,38.88
2018-01-23T06:05:04.220Z,40.85
2018-01-23T06:07:31.703Z,31.62
2018-01-23T06:09:59.202Z,30.40
2018-01-23T06:12:26.688Z,32.00
2018-01-23T06:14:54.193Z,31.27
2018-01-23T06:17:21.735Z,30.02
2018-01-23T06:19:49.312Z,29.10
2018-01-23T06:22:16.894Z,27.45
2018-01-23T06:24:44.800Z,36.25
2018-01-23T06:27:12.283Z,27.52
2018-01-23T06:29:39.786Z,28.80
2018-01-23T06:32:07.266Z,29.50
2018-01-23T06:34:34.769Z,30.45
2018-01-23T06:37:02.251Z,31.98
2018-01-23T06:39:29.760Z,25.15
2018-01-23T06:41:57.239Z,24.25
2018-01-23T06:44:24.744Z,26.77
2018-01-23T06:46:52.711Z,33.55
2018-01-23T06:49:20.190Z,40.70
2018-01-23T06:51:48.096Z,31.45
2018-01-23T06:54:15.588Z,26.17
2018-01-23T06:56:43.107Z,30.48
2018-01-23T06:59:10.605Z,34.97
2018-01-23T07:01:38.109Z,28.08
2018-01-23T07:04:05.640Z,26.65
2018-01-23T07:06:33.182Z,31.15
2018-01-23T07:09:00.664Z,29.63
2018-01-23T07:11:28.576Z,31.12
2018-01-23T07:13:56.055Z,26.17
2018-01-23T07:16:23.568Z,35.78
2018-01-23T07:18:51.047Z,35.85
2018-01-23T07:21:18.559Z,39.53
2018-01-23T07:23:46.047Z,30.85
2018-01-23T07:26:13.663Z,28.92
2018-01-23T07:28:41.152Z,37.65
2018-01-23T07:31:09.064Z,27.58
2018-01-23T07:33:36.538Z,28.05
2018-01-23T07:36:04.050Z,28.40
2018-01-23T07:38:31.629Z,27.33
2018-01-23T07:40:59.200Z,30.00
2018-01-23T07:43:26.675Z,25.80
2018-01-23T07:45:54.579Z,26.75
2018-01-23T07:48:22.123Z,20.83
2018-01-23T07:50:50.019Z,36.92
2018-01-23T07:53:17.998Z,29.73
2018-01-23T07:55:45.920Z,31.58
2018-01-23T07:58:13.403Z,26.08
2018-01-23T08:00:40.907Z,27.55
2018-01-23T08:03:08.391Z,24.35
2018-01-23T08:05:36.287Z,28.52
2018-01-23T08:08:03.771Z,26.73
2018-01-23T08:10:31.284Z,25.60
2018-01-23T08:12:58.772Z,20.92
2018-01-23T08:15:26.672Z,23.30
2018-01-23T08:17:54.156Z,22.48
2018-01-23T08:20:21.663Z,22.33
2018-01-23T08:22:49.491Z,19.55
2018-01-23T08:25:17.045Z,23.05
2018-01-23T08:27:45.254Z,19.48
2018-01-23T08:30:12.755Z,18.73
2018-01-23T08:32:40.368Z,26.55
2018-01-23T08:35:07.944Z,16.23
2018-01-23T08:37:35.452Z,13.90
2018-01-23T08:40:02.936Z,19.10
2018-01-23T08:42:30.448Z,20.65
2018-01-23T08:44:58.023Z,15.38
2018-01-23T08:47:25.527Z,21.17
2018-01-23T08:49:52.998Z,18.42
2018-01-23T08:52:20.499Z,19.10
2018-01-23T08:54:47.980Z,19.20
2018-01-23T08:57:15.580Z,18.45
2018-01-23T08:59:43.060Z,11.30
2018-01-23T09:02:10.977Z,15.88
2018-01-23T09:04:38.456Z,15.90
2018-01-23T09:07:05.954Z,17.37
2018-01-23T09:09:33.436Z,15.77
2018-01-23T09:12:01.013Z,25.23
2018-01-23T09:14:28.492Z,14.45
2018-01-23T09:16:56.392Z,22.90
2018-01-23T09:19:23.936Z,15.57
2018-01-23T09:21:51.440Z,17.48
2018-01-23T09:24:18.925Z,17.33
2018-01-23T09:26:46.422Z,14.93
2018-01-23T09:29:13.894Z,11.85
2018-01-23T09:31:41.390Z,10.55
2018-01-23T09:34:09.368Z,21.48
2018-01-23T09:36:36.866Z,15.43
2018-01-23T09:39:04.439Z,13.13
2018-01-23T09:41:31.952Z,15.60
2018-01-23T09:43:59.436Z,19.90
2018-01-23T09:46:26.945Z,12.30
2018-01-23T09:48:54.821Z,13.82
2018-01-23T09:51:22.724Z,16.87
2018-01-23T09:53:50.212Z,15.73
2018-01-23T09:56:17.716Z,22.37
2018-01-23T09:58:45.199Z,18.33
2018-01-23T10:01:12.708Z,9.45
2018-01-23T10:03:40.188Z,16.73
2018-01-23T10:06:07.684Z,13.75
2018-01-23T10:08:35.183Z,16.20
2018-01-23T10:11:03.063Z,9.25
2018-01-23T10:13:30.968Z,13.57
2018-01-23T10:15:58.448Z,15.95
2018-01-23T10:18:25.952Z,17.77
2018-01-23T10:20:53.433Z,17.70
2018-01-23T10:23:20.930Z,11.15
2018-01-23T10:25:48.808Z,19.87
2018-01-23T10:28:16.770Z,18.02
2018-01-23T10:30:44.252Z,19.40
2018-01-23T10:33:11.755Z,19.00
2018-01-23T10:35:39.292Z,15.18
2018-01-23T10:38:06.800Z,12.23
2018-01-23T10:40:34.280Z,11.27
2018-01-23T10:43:01.809Z,11.05
2018-01-23T10:45:29.288Z,16.10
2018-01-23T10:47:57.203Z,10.35
2018-01-23T10:50:24.687Z,14.35
2018-01-23T10:52:52.182Z,11.75
2018-01-23T10:55:19.654Z,15.18
2018-01-23T10:57:47.244Z,16.35
2018-01-23T11:00:15.124Z,15.65
2018-01-23T11:02:42.632Z,10.23
2018-01-23T11:05:10.116Z,10.15
2018-01-23T11:07:37.623Z,17.35
2018-01-23T11:10:05.104Z,15.15
2018-01-23T11:12:32.648Z,13.98
2018-01-23T11:15:00.128Z,10.32
2018-01-23T11:17:27.632Z,11.23
2018-01-23T11:19:55.513Z,14.85
2018-01-23T11:22:23.439Z,13.55
2018-01-23T11:24:50.971Z,8.73
2018-01-23T11:27:18.516Z,12.18
2018-01-23T11:29:46.082Z,8.63
2018-01-23T11:32:13.600Z,9.63
2018-01-23T11:34:41.077Z,7.40
2018-01-23T11:37:08.588Z,15.18
2018-01-23T11:39:36.173Z,9.48
2018-01-23T11:42:03.648Z,6.72
2018-01-23T11:44:31.650Z,7.22
2018-01-23T11:46:59.137Z,11.15
2018-01-23T11:49:26.645Z,12.95
2018-01-23T11:51:54.120Z,8.55
2018-01-23T11:54:21.694Z,8.85
2018-01-23T11:56:49.172Z,6.35
2018-01-23T11:59:16.752Z,9.18
2018-01-23T12:01:44.241Z,9.75
2018-01-23T12:04:11.773Z,8.38
2018-01-23T12:06:39.256Z,8.73
2018-01-23T12:09:06.764Z,11.88
2018-01-23T12:11:34.244Z,10.93
2018-01-23T12:14:01.753Z,12.43
2018-01-23T12:16:29.236Z,10.27
2018-01-23T12:18:56.730Z,9.60
2018-01-23T12:21:24.609Z,8.88
2018-01-23T12:23:52.504Z,9.63
2018-01-23T12:26:20.053Z,12.82
2018-01-23T12:28:47.955Z,11.40
2018-01-23T12:31:15.427Z,8.27
2018-01-23T12:33:42.926Z,14.27
2018-01-23T12:36:10.398Z,10.55
2018-01-23T12:38:37.902Z,5.95
2018-01-23T12:41:05.389Z,9.27
2018-01-23T12:43:33.292Z,12.27
2018-01-23T12:46:00.771Z,12.30
2018-01-23T12:48:28.270Z,12.35
2018-01-23T12:50:55.772Z,6.97
2018-01-23T12:53:23.275Z,9.00
2018-01-23T12:55:50.802Z,9.02
2018-01-23T12:58:18.384Z,4.87
2018-01-23T13:00:45.947Z,6.15
2018-01-23T13:03:13.453Z,8.80
2018-01-23T13:05:40.932Z,9.73
2018-01-23T13:08:08.435Z,9.38
2018-01-23T13:10:35.917Z,9.85
2018-01-23T13:13:03.433Z,7.00
2018-01-23T13:15:30.979Z,7.00
2018-01-23T13:17:58.546Z,10.40
2018-01-23T13:20:26.043Z,7.90
2018-01-23T13:22:53.592Z,8.30
2018-01-23T13:25:21.096Z,9.65
2018-01-23T13:27:48.641Z,10.57
2018-01-23T13:30:16.623Z,7.20
2018-01-23T13:32:44.504Z,7.30
2018-01-23T13:35:12.020Z,9.45
2018-01-23T13:37:39.500Z,7.37
2018-01-23T13:40:07.004Z,10.57
2018-01-23T13:42:34.575Z,5.80
2018-01-23T13:45:02.077Z,9.70
2018-01-23T13:47:29.552Z,5.60
2018-01-23T13:49:57.061Z,6.50
2018-01-23T13:52:24.544Z,10.35
2018-01-23T13:54:52.048Z,6.60
2018-01-23T13:57:19.919Z,10.25
2018-01-23T13:59:47.486Z,7.35
2018-01-23T14:02:14.958Z,5.30
2018-01-23T14:04:42.455Z,7.57
2018-01-23T14:07:09.928Z,6.25
2018-01-23T14:09:37.428Z,8.35
2018-01-23T14:12:04.904Z,5.82
2018-01-23T14:14:32.512Z,6.97
2018-01-23T14:16:59.992Z,5.93
2018-01-23T14:19:27.964Z,6.65
2018-01-23T14:21:55.548Z,8.23
2018-01-23T14:24:23.117Z,17.52
2018-01-23T14:26:50.987Z,17.58
2018-01-23T14:29:18.492Z,17.05
2018-01-23T14:31:45.963Z,6.53
2018-01-23T14:34:13.498Z,9.30
2018-01-23T14:36:40.981Z,6.97
2018-01-23T14:39:08.960Z,10.07
2018-01-23T14:41:36.836Z,16.52
2018-01-23T14:44:04.340Z,4.62
2018-01-23T14:46:31.821Z,10.38
2018-01-23T14:48:59.328Z,9.18
2018-01-23T14:51:26.808Z,10.43
2018-01-23T14:53:54.289Z,6.45
2018-01-23T14:56:21.792Z,6.65
2018-01-23T14:58:49.272Z,10.27
2018-01-23T15:01:16.771Z,8.70
2018-01-23T15:03:44.243Z,6.22
2018-01-23T15:06:11.756Z,10.05
2018-01-23T15:08:39.233Z,5.30
2018-01-23T15:11:06.774Z,6.87
2018-01-23T15:13:34.247Z,5.72
2018-01-23T15:16:01.748Z,6.43
2018-01-23T15:18:29.220Z,7.30
2018-01-23T15:20:56.725Z,9.98
2018-01-23T15:23:24.194Z,7.87
2018-01-23T15:25:51.691Z,6.50
2018-01-23T15:28:19.167Z,5.85
2018-01-23T15:30:46.662Z,5.15
2018-01-23T15:33:14.655Z,9.13
2018-01-23T15:35:42.204Z,5.90
2018-01-23T15:38:10.209Z,7.72
2018-01-23T15:40:37.716Z,8.88
2018-01-23T15:43:05.226Z,6.00
2018-01-23T15:45:33.119Z,7.28
2018-01-23T15:48:00.680Z,6.25
2018-01-23T15:50:28.654Z,5.95
2018-01-23T15:52:56.543Z,4.82
2018-01-23T15:55:24.442Z,8.48
2018-01-23T15:57:51.919Z,5.70
2018-01-23T16:00:19.419Z,7.45
2018-01-23T16:02:46.912Z,4.82
2018-01-23T16:05:14.498Z,7.80
2018-01-23T16:07:42.510Z,9.50
2018-01-23T16:10:10.017Z,6.43
2018-01-23T16:12:37.486Z,8.65
2018-01-23T16:15:04.992Z,5.18
2018-01-23T16:17:32.467Z,5.87
2018-01-23T16:20:00.068Z,6.72
2018-01-23T16:22:27.540Z,7.22
2018-01-23T16:24:55.035Z,5.30
2018-01-23T16:27:22.513Z,8.88
2018-01-23T16:29:50.046Z,8.80
2018-01-23T16:32:17.552Z,7.37
2018-01-23T16:34:45.032Z,8.45
2018-01-23T16:37:12.632Z,9.60
2018-01-23T16:39:40.116Z,3.75
2018-01-23T16:42:08.088Z,8.23
2018-01-23T16:44:35.652Z,4.50
2018-01-23T16:47:03.233Z,9.63
2018-01-23T16:49:31.110Z,6.03
2018-01-23T16:51:59.133Z,5.70
2018-01-23T16:54:26.613Z,4.97
2018-01-23T16:56:54.107Z,5.62
2018-01-23T16:59:21.596Z,11.48
2018-01-23T17:01:49.172Z,5.93
2018-01-23T17:04:16.739Z,3.78
2018-01-23T17:06:44.239Z,6.03
2018-01-23T17:09:11.716Z,4.30
2018-01-23T17:11:39.611Z,4.18
2018-01-23T17:14:07.106Z,5.85
2018-01-23T17:16:34.641Z,5.62
2018-01-23T17:19:02.211Z,6.47
2018-01-23T17:21:29.752Z,6.57
2018-01-23T17:23:57.224Z,4.45
2018-01-23T17:26:25.122Z,7.70
2018-01-23T17:28:52.992Z,9.75
2018-01-23T17:31:20.964Z,4.75
2018-01-23T17:33:48.451Z,7.90
2018-01-23T17:36:16.415Z,8.32
2018-01-23T17:38:44.016Z,10.63
2018-01-23T17:41:11.510Z,6.75
2018-01-23T17:43:38.979Z,6.00
2018-01-23T17:46:06.485Z,11.02
2018-01-23T17:48:33.969Z,5.37
2018-01-23T17:51:01.545Z,7.37
2018-01-23T17:53:29.419Z,5.43
2018-01-23T17:55:57.348Z,9.63
2018-01-23T17:58:24.879Z,5.07
2018-01-23T18:00:52.767Z,3.40
2018-01-23T18:03:20.647Z,3.45
2018-01-23T18:05:48.547Z,5.50
2018-01-23T18:08:16.099Z,5.32
2018-01-23T18:10:43.977Z,6.53
2018-01-23T18:13:11.943Z,6.40
2018-01-23T18:15:39.419Z,8.82
2018-01-23T18:18:06.993Z,4.05
2018-01-23T18:20:34.863Z,3.50
2018-01-23T18:23:02.440Z,5.28
2018-01-23T18:25:29.920Z,6.00
2018-01-23T18:27:59.587Z,5.30
2018-01-23T18:30:27.063Z,7.28
2018-01-23T18:32:54.584Z,5.03
2018-01-23T18:35:22.465Z,4.95
2018-01-23T18:37:50.440Z,9.52
2018-01-23T18:40:18.324Z,3.83
2018-01-23T18:42:46.225Z,8.55
2018-01-23T18:45:13.704Z,4.70
2018-01-23T18:47:41.244Z,6.90
2018-01-23T18:50:09.115Z,4.10
2018-01-23T18:52:36.611Z,8.35
2018-01-23T18:55:04.480Z,6.22
2018-01-23T18:57:31.984Z,4.28
2018-01-23T18:59:59.464Z,4.45
2018-01-23T19:02:26.966Z,9.52
2018-01-23T19:04:54.438Z,10.40
2018-01-23T19:07:21.940Z,4.22
2018-01-23T19:09:49.809Z,5.95
2018-01-23T19:12:17.704Z,4.50
2018-01-23T19:14:45.184Z,5.57
2018-01-23T19:17:12.687Z,6.85
2018-01-23T19:19:40.163Z,10.00
2018-01-23T19:22:07.660Z,7.95
2018-01-23T19:24:35.548Z,12.80
2018-01-23T19:27:03.520Z,4.47
2018-01-23T19:29:31.001Z,4.35
2018-01-23T19:31:58.529Z,5.90
2018-01-23T19:34:26.010Z,6.93
2018-01-23T19:36:53.519Z,5.00
2018-01-23T19:39:21.395Z,7.25
2018-01-23T19:41:49.364Z,4.45
2018-01-23T19:44:16.861Z,9.45
2018-01-23T19:46:45.330Z,9.50
2018-01-23T19:49:12.892Z,4.97
2018-01-23T19:51:40.376Z,6.18
2018-01-23T19:54:07.874Z,8.18
2018-01-23T19:56:35.342Z,7.70
2018-01-23T19:59:02.912Z,6.37
2018-01-23T20:01:30.383Z,6.12
2018-01-23T20:03:57.888Z,6.32
2018-01-23T20:06:25.354Z,8.38
2018-01-23T20:08:52.860Z,8.20
2018-01-23T20:11:20.344Z,4.65
2018-01-23T20:13:48.244Z,4.68
2018-01-23T20:16:15.724Z,6.32
2018-01-23T20:18:43.229Z,5.43
2018-01-23T20:21:10.755Z,5.90
2018-01-23T20:23:38.260Z,9.75
2018-01-23T20:26:05.772Z,7.20
2018-01-23T20:28:33.666Z,13.18
2018-01-23T20:31:01.544Z,5.65
2018-01-23T20:33:29.485Z,7.53
2018-01-23T20:35:56.964Z,5.85
2018-01-23T20:38:24.472Z,11.20
2018-01-23T20:40:52.428Z,7.12
2018-01-23T20:43:19.940Z,7.82
2018-01-23T20:45:47.417Z,6.45
2018-01-23T20:48:14.947Z,4.93
2018-01-23T20:50:42.442Z,8.38
2018-01-23T20:53:09.939Z,7.70
2018-01-23T20:55:37.415Z,6.37
2018-01-23T20:58:04.915Z,9.73
2018-01-23T21:00:32.398Z,6.85
2018-01-23T21:02:59.896Z,5.35
2018-01-23T21:05:27.376Z,8.65
2018-01-23T21:07:54.880Z,10.20
2018-01-23T21:10:22.364Z,7.72
2018-01-23T21:12:49.864Z,8.32
2018-01-23T21:15:17.736Z,6.10
2018-01-23T21:17:45.635Z,6.03
2018-01-23T21:20:13.118Z,7.30
2018-01-23T21:22:40.644Z,3.85
2018-01-23T21:25:08.124Z,3.15
2018-01-23T21:27:35.653Z,5.60
2018-01-23T21:30:03.124Z,5.07
2018-01-23T21:32:30.604Z,7.93
2018-01-23T21:34:58.107Z,5.45
2018-01-23T21:37:25.980Z,7.35
2018-01-23T21:39:53.491Z,7.00
2018-01-23T21:42:21.019Z,7.45
2018-01-23T21:44:48.519Z,6.50
2018-01-23T21:47:16.396Z,5.75
2018-01-23T21:49:43.909Z,7.78
2018-01-23T21:52:11.383Z,4.85
2018-01-23T21:54:38.892Z,4.85
2018-01-23T21:57:06.763Z,7.32
2018-01-23T21:59:34.271Z,7.87
2018-01-23T22:02:01.816Z,7.30
2018-01-23T22:04:29.720Z,5.22
2018-01-23T22:06:57.260Z,6.85
2018-01-23T22:09:24.778Z,8.02
2018-01-23T22:11:52.299Z,5.30
2018-01-23T22:14:19.876Z,7.43
2018-01-23T22:16:47.365Z,8.07
2018-01-23T22:19:15.269Z,5.10
2018-01-23T22:21:42.738Z,5.55
2018-01-23T22:24:10.255Z,5.10
2018-01-23T22:26:37.834Z,4.43
2018-01-23T22:29:05.336Z,5.15
2018-01-23T22:31:32.880Z,4.15
2018-01-23T22:34:00.406Z,3.30
2018-01-23T22:36:27.881Z,5.87
2018-01-23T22:38:55.378Z,4.37
2018-01-23T22:41:23.706Z,3.40
2018-01-23T22:43:51.630Z,4.68
2018-01-23T22:46:19.102Z,4.12
2018-01-23T22:48:46.608Z,4.82
2018-01-23T22:51:14.575Z,4.05
2018-01-23T22:53:42.084Z,4.87
2018-01-23T22:56:09.556Z,2.85
2018-01-23T22:58:37.065Z,5.97
2018-01-23T23:01:04.540Z,2.00
2018-01-23T23:03:32.041Z,3.70
2018-01-23T23:05:59.936Z,7.28
2018-01-23T23:08:27.816Z,3.75
2018-01-23T23:10:55.720Z,1.83
2018-01-23T23:13:23.201Z,2.97
2018-01-23T23:15:50.698Z,2.37
2018-01-23T23:18:18.172Z,4.43
2018-01-23T23:20:45.671Z,2.15
2018-01-23T23:23:13.538Z,3.08
2018-01-23T23:25:41.043Z,2.97
2018-01-23T23:28:08.524Z,3.65
2018-01-23T23:30:36.048Z,2.45
2018-01-23T23:33:03.528Z,6.00
2018-01-23T23:35:31.432Z,4.28
2018-01-23T23:37:58.904Z,3.95
2018-01-23T23:40:26.439Z,3.78
2018-01-23T23:42:53.900Z,2.33
2018-01-23T23:45:21.488Z,1.35
2018-01-23T23:47:49.364Z,2.15
2018-01-23T23:50:16.876Z,2.53
2018-01-23T23:52:44.356Z,2.47
2018-01-23T23:55:11.872Z,1.20
2018-01-23T23:57:39.359Z,1.00
